Puerto Limon, Costa Rica
Current Conditions -  °F | °C
As of 6:00 PM on Friday 24 Oct 2014 (Local Time) from MRPV Reporting Station
Haze Haze  
Wind Chill: 72°   Ceiling: 1200
Heat Index: 72°   Visibility: 3mi
Dew Point: 70°   Wind: 6mph
Humidity: 94%   Direction: 270°W
Pressure: 30"   Gusts: NA
Location:  9.99°N, 83.04°W
Report Text: MRPV 250000Z 27005KT 5000 BR FEW005 BKN012 22/21 A3000 NOSIG
Loading
Personal Weather Stations






























Interactive Weather Map
Tropical Storm Tracking
New forecast layout! Learn more

10-Day Weather Forecast

Advertisements
Track Severe Weather on mobile